sensor_id;sensor_type;location;lat;lon;timestamp;pressure;altitude;pressure_sealevel;temperature;humidity
21863;BME280;11096;51.338;12.524;2023-04-29T00:00:04;99560.56;;;19.15;100.00
21863;BME280;11096;51.338;12.524;2023-04-29T00:02:34;99557.28;;;14.50;100.00
21863;BME280;11096;51.338;12.524;2023-04-29T00:04:59;99571.16;;;10.67;100.00
21863;BME280;11096;51.338;12.524;2023-04-29T00:07:25;99574.69;;;10.21;100.00
21863;BME280;11096;51.338;12.524;2023-04-29T00:09:50;99566.34;;;10.28;100.00
21863;BME280;11096;51.338;12.524;2023-04-29T00:12:17;99586.19;;;10.29;100.00
21863;BME280;11096;51.338;12.524;2023-04-29T00:14:42;99579.94;;;10.32;100.00
21863;BME280;11096;51.338;12.524;2023-04-29T00:17:08;99583.59;;;10.63;100.00
21863;BME280;11096;51.338;12.524;2023-04-29T00:19:34;99583.34;;;10.55;100.00
21863;BME280;11096;51.338;12.524;2023-04-29T00:21:59;99580.63;;;10.45;100.00
21863;BME280;11096;51.338;12.524;2023-04-29T00:24:25;99582.06;;;10.49;100.00
21863;BME280;11096;51.338;12.524;2023-04-29T00:26:51;99578.28;;;10.53;100.00
21863;BME280;11096;51.338;12.524;2023-04-29T00:29:16;99565.97;;;10.56;100.00
21863;BME280;11096;51.338;12.524;2023-04-29T00:31:42;99575.31;;;10.58;100.00
21863;BME280;11096;51.338;12.524;2023-04-29T00:34:08;99568.22;;;10.60;100.00
21863;BME280;11096;51.338;12.524;2023-04-29T00:36:33;99572.94;;;10.66;100.00
21863;BME280;11096;51.338;12.524;2023-04-29T00:38:59;99571.38;;;10.75;100.00
21863;BME280;11096;51.338;12.524;2023-04-29T00:41:24;99567.59;;;10.79;100.00
21863;BME280;11096;51.338;12.524;2023-04-29T00:43:50;99569.25;;;10.80;100.00
21863;BME280;11096;51.338;12.524;2023-04-29T00:46:16;99573.38;;;10.83;100.00
21863;BME280;11096;51.338;12.524;2023-04-29T00:48:42;99576.38;;;10.78;100.00
21863;BME280;11096;51.338;12.524;2023-04-29T00:51:08;99579.06;;;10.77;100.00
21863;BME280;11096;51.338;12.524;2023-04-29T00:53:34;99576.13;;;10.81;100.00
21863;BME280;11096;51.338;12.524;2023-04-29T00:56:01;99587.91;;;10.85;100.00
21863;BME280;11096;51.338;12.524;2023-04-29T00:58:28;99585.56;;;10.82;100.00
21863;BME280;11096;51.338;12.524;2023-04-29T01:01:00;99576.84;;;10.72;100.00
21863;BME280;11096;51.338;12.524;2023-04-29T01:03:30;99575.75;;;10.74;100.00
21863;BME280;11096;51.338;12.524;2023-04-29T01:09:05;99587.09;;;10.85;100.00
21863;BME280;11096;51.338;12.524;2023-04-29T01:11:39;99588.88;;;10.73;100.00
21863;BME280;11096;51.338;12.524;2023-04-29T01:14:09;99596.56;;;10.74;100.00
21863;BME280;11096;51.338;12.524;2023-04-29T01:16:50;99593.13;;;10.74;100.00
21863;BME280;11096;51.338;12.524;2023-04-29T01:19:38;99580.59;;;10.68;100.00
21863;BME280;11096;51.338;12.524;2023-04-29T01:22:07;99584.16;;;10.67;100.00
21863;BME280;11096;51.338;12.524;2023-04-29T01:24:32;99591.25;;;10.65;100.00
21863;BME280;11096;51.338;12.524;2023-04-29T01:27:04;99586.97;;;10.75;100.00
21863;BME280;11096;51.338;12.524;2023-04-29T01:29:58;99599.50;;;10.70;100.00
21863;BME280;11096;51.338;12.524;2023-04-29T01:32:51;99600.81;;;10.64;100.00
21863;BME280;11096;51.338;12.524;2023-04-29T01:35:29;99600.47;;;10.69;100.00
21863;BME280;11096;51.338;12.524;2023-04-29T01:38:17;99601.19;;;10.71;100.00
21863;BME280;11096;51.338;12.524;2023-04-29T01:43:33;99600.22;;;10.61;100.00
21863;BME280;11096;51.338;12.524;2023-04-29T01:46:01;99603.53;;;10.63;100.00
21863;BME280;11096;51.338;12.524;2023-04-29T01:48:28;99606.84;;;10.65;100.00
21863;BME280;11096;51.338;12.524;2023-04-29T01:50:54;99603.66;;;10.61;100.00
21863;BME280;11096;51.338;12.524;2023-04-29T01:53:20;99613.34;;;10.59;100.00
21863;BME280;11096;51.338;12.524;2023-04-29T01:55:45;99612.63;;;10.57;100.00
21863;BME280;11096;51.338;12.524;2023-04-29T01:58:10;99603.78;;;10.60;100.00
21863;BME280;11096;51.338;12.524;2023-04-29T02:00:36;99610.41;;;10.64;100.00
21863;BME280;11096;51.338;12.524;2023-04-29T02:03:02;99620.91;;;10.62;100.00
21863;BME280;11096;51.338;12.524;2023-04-29T02:05:28;99622.66;;;10.62;100.00
21863;BME280;11096;51.338;12.524;2023-04-29T02:07:58;99618.53;;;10.59;100.00
21863;BME280;11096;51.338;12.524;2023-04-29T02:10:23;99624.56;;;10.60;100.00
21863;BME280;11096;51.338;12.524;2023-04-29T02:12:48;99620.78;;;10.64;100.00
21863;BME280;11096;51.338;12.524;2023-04-29T02:15:14;99618.41;;;10.61;100.00
21863;BME280;11096;51.338;12.524;2023-04-29T02:17:39;99626.34;;;10.59;100.00
21863;BME280;11096;51.338;12.524;2023-04-29T02:20:06;99629.50;;;10.63;100.00
21863;BME280;11096;51.338;12.524;2023-04-29T02:22:31;99624.56;;;10.60;100.00
21863;BME280;11096;51.338;12.524;2023-04-29T02:24:57;99626.91;;;10.63;100.00
21863;BME280;11096;51.338;12.524;2023-04-29T02:27:22;99630.38;;;10.63;100.00
21863;BME280;11096;51.338;12.524;2023-04-29T02:29:48;99630.47;;;10.62;100.00
21863;BME280;11096;51.338;12.524;2023-04-29T02:32:15;99624.78;;;10.68;100.00
21863;BME280;11096;51.338;12.524;2023-04-29T02:34:44;99625.25;;;10.73;100.00
21863;BME280;11096;51.338;12.524;2023-04-29T02:37:10;99626.22;;;10.72;100.00
21863;BME280;11096;51.338;12.524;2023-04-29T02:39:35;99631.50;;;10.70;100.00
21863;BME280;11096;51.338;12.524;2023-04-29T02:42:01;99628.69;;;10.73;100.00
21863;BME280;11096;51.338;12.524;2023-04-29T02:44:27;99629.41;;;10.76;100.00
21863;BME280;11096;51.338;12.524;2023-04-29T02:46:52;99633.28;;;10.81;100.00
21863;BME280;11096;51.338;12.524;2023-04-29T02:49:18;99634.38;;;10.79;100.00
21863;BME280;11096;51.338;12.524;2023-04-29T02:51:43;99635.66;;;10.73;100.00
21863;BME280;11096;51.338;12.524;2023-04-29T02:54:09;99640.84;;;10.73;100.00
21863;BME280;11096;51.338;12.524;2023-04-29T02:56:36;99639.91;;;10.74;100.00
21863;BME280;11096;51.338;12.524;2023-04-29T02:59:01;99635.53;;;10.74;100.00
21863;BME280;11096;51.338;12.524;2023-04-29T03:01:27;99628.81;;;10.72;100.00
21863;BME280;11096;51.338;12.524;2023-04-29T03:03:53;99639.44;;;10.69;100.00
21863;BME280;11096;51.338;12.524;2023-04-29T03:06:19;99632.69;;;10.78;100.00
21863;BME280;11096;51.338;12.524;2023-04-29T03:08:44;99632.00;;;10.76;100.00
21863;BME280;11096;51.338;12.524;2023-04-29T03:11:10;99628.34;;;10.78;100.00
21863;BME280;11096;51.338;12.524;2023-04-29T03:13:36;99635.19;;;10.79;100.00
21863;BME280;11096;51.338;12.524;2023-04-29T03:16:03;99628.34;;;10.78;100.00
21863;BME280;11096;51.338;12.524;2023-04-29T03:18:28;99631.88;;;10.77;100.00
21863;BME280;11096;51.338;12.524;2023-04-29T03:20:53;99631.63;;;10.80;100.00
21863;BME280;11096;51.338;12.524;2023-04-29T03:23:19;99627.28;;;10.81;100.00
21863;BME280;11096;51.338;12.524;2023-04-29T03:25:45;99632.47;;;10.81;100.00
21863;BME280;11096;51.338;12.524;2023-04-29T03:28:10;99627.38;;;10.79;100.00
21863;BME280;11096;51.338;12.524;2023-04-29T03:30:35;99632.22;;;10.72;100.00
21863;BME280;11096;51.338;12.524;2023-04-29T03:33:01;99636.72;;;10.70;100.00
21863;BME280;11096;51.338;12.524;2023-04-29T03:35:26;99626.91;;;10.63;100.00
21863;BME280;11096;51.338;12.524;2023-04-29T03:37:52;99632.25;;;10.61;100.00
21863;BME280;11096;51.338;12.524;2023-04-29T03:40:17;99630.47;;;10.62;100.00
21863;BME280;11096;51.338;12.524;2023-04-29T03:42:43;99631.41;;;10.61;100.00
21863;BME280;11096;51.338;12.524;2023-04-29T03:45:09;99623.97;;;10.56;100.00
21863;BME280;11096;51.338;12.524;2023-04-29T03:47:37;99623.13;;;10.56;100.00
21863;BME280;11096;51.338;12.524;2023-04-29T03:50:03;99623.84;;;10.58;100.00
21863;BME280;11096;51.338;12.524;2023-04-29T03:52:28;99616.88;;;10.58;100.00
21863;BME280;11096;51.338;12.524;2023-04-29T03:54:54;99624.66;;;10.58;100.00
21863;BME280;11096;51.338;12.524;2023-04-29T03:57:19;99624.66;;;10.58;100.00
21863;BME280;11096;51.338;12.524;2023-04-29T03:59:44;99628.69;;;10.62;100.00
21863;BME280;11096;51.338;12.524;2023-04-29T04:02:15;99623.38;;;10.64;100.00
21863;BME280;11096;51.338;12.524;2023-04-29T04:04:40;99632.56;;;10.68;100.00
21863;BME280;11096;51.338;12.524;2023-04-29T04:07:06;99635.19;;;10.68;100.00
21863;BME280;11096;51.338;12.524;2023-04-29T04:09:31;99634.97;;;10.71;100.00
21863;BME280;11096;51.338;12.524;2023-04-29T04:11:57;99639.19;;;10.72;100.00
21863;BME280;11096;51.338;12.524;2023-04-29T04:14:23;99637.22;;;10.76;100.00
21863;BME280;11096;51.338;12.524;2023-04-29T04:16:48;99639.66;;;10.77;100.00
21863;BME280;11096;51.338;12.524;2023-04-29T04:19:15;99649.00;;;10.80;100.00
21863;BME280;11096;51.338;12.524;2023-04-29T04:21:40;99647.81;;;10.84;100.00
21863;BME280;11096;51.338;12.524;2023-04-29T04:24:06;99646.88;;;10.85;100.00
21863;BME280;11096;51.338;12.524;2023-04-29T04:26:32;99651.97;;;10.86;100.00
21863;BME280;11096;51.338;12.524;2023-04-29T04:28:57;99651.47;;;10.92;100.00
21863;BME280;11096;51.338;12.524;2023-04-29T04:31:23;99656.31;;;10.97;100.00
21863;BME280;11096;51.338;12.524;2023-04-29T04:33:48;99659.72;;;10.98;100.00
21863;BME280;11096;51.338;12.524;2023-04-29T04:36:14;99658.09;;;10.96;100.00
21863;BME280;11096;51.338;12.524;2023-04-29T04:38:39;99656.19;;;10.99;100.00
21863;BME280;11096;51.338;12.524;2023-04-29T04:41:07;99662.81;;;11.03;100.00
21863;BME280;11096;51.338;12.524;2023-04-29T04:43:33;99665.53;;;11.01;100.00
21863;BME280;11096;51.338;12.524;2023-04-29T04:45:58;99672.25;;;11.04;100.00
21863;BME280;11096;51.338;12.524;2023-04-29T04:48:23;99664.72;;;11.01;100.00
21863;BME280;11096;51.338;12.524;2023-04-29T04:50:49;99665.28;;;11.04;100.00
21863;BME280;11096;51.338;12.524;2023-04-29T04:53:14;99664.56;;;11.02;100.00
21863;BME280;11096;51.338;12.524;2023-04-29T04:55:40;99663.50;;;11.05;100.00
21863;BME280;11096;51.338;12.524;2023-04-29T04:58:05;99667.78;;;11.06;100.00
21863;BME280;11096;51.338;12.524;2023-04-29T05:00:31;99666.34;;;11.02;100.00
21863;BME280;11096;51.338;12.524;2023-04-29T05:02:56;99669.78;;;11.02;100.00
21863;BME280;11096;51.338;12.524;2023-04-29T05:05:22;99674.16;;;11.13;100.00
21863;BME280;11096;51.338;12.524;2023-04-29T05:07:47;99670.47;;;11.15;100.00
21863;BME280;11096;51.338;12.524;2023-04-29T05:10:13;99676.38;;;11.17;100.00
21863;BME280;11096;51.338;12.524;2023-04-29T05:12:38;99675.06;;;11.23;100.00
21863;BME280;11096;51.338;12.524;2023-04-29T05:15:04;99673.41;;;11.22;100.00
21863;BME280;11096;51.338;12.524;2023-04-29T05:17:29;99677.41;;;11.26;100.00
21863;BME280;11096;51.338;12.524;2023-04-29T05:19:55;99683.69;;;11.24;100.00
21863;BME280;11096;51.338;12.524;2023-04-29T05:22:20;99679.44;;;11.23;100.00
21863;BME280;11096;51.338;12.524;2023-04-29T05:24:46;99689.50;;;11.16;100.00
21863;BME280;11096;51.338;12.524;2023-04-29T05:27:13;99689.00;;;11.22;100.00
21863;BME280;11096;51.338;12.524;2023-04-29T05:29:38;99692.22;;;11.26;100.00
21863;BME280;11096;51.338;12.524;2023-04-29T05:32:04;99689.34;;;11.29;100.00
21863;BME280;11096;51.338;12.524;2023-04-29T05:34:29;99678.94;;;11.29;100.00
21863;BME280;11096;51.338;12.524;2023-04-29T05:36:55;99685.41;;;11.46;100.00
21863;BME280;11096;51.338;12.524;2023-04-29T05:39:21;99695.00;;;11.45;100.00
21863;BME280;11096;51.338;12.524;2023-04-29T05:41:47;99697.72;;;11.44;100.00
21863;BME280;11096;51.338;12.524;2023-04-29T05:44:12;99700.06;;;11.58;100.00
21863;BME280;11096;51.338;12.524;2023-04-29T05:46:38;99703.31;;;11.71;100.00
21863;BME280;11096;51.338;12.524;2023-04-29T05:49:03;99698.88;;;11.62;100.00
21863;BME280;11096;51.338;12.524;2023-04-29T05:51:29;99711.38;;;11.68;100.00
21863;BME280;11096;51.338;12.524;2023-04-29T05:53:56;99706.69;;;11.62;100.00
21863;BME280;11096;51.338;12.524;2023-04-29T05:56:23;99723.19;;;11.72;100.00
21863;BME280;11096;51.338;12.524;2023-04-29T05:58:49;99725.09;;;11.70;100.00
21863;BME280;11096;51.338;12.524;2023-04-29T06:01:14;99725.56;;;11.75;100.00
21863;BME280;11096;51.338;12.524;2023-04-29T06:03:41;99725.63;;;11.96;100.00
21863;BME280;11096;51.338;12.524;2023-04-29T06:06:07;99730.41;;;11.91;100.00
21863;BME280;11096;51.338;12.524;2023-04-29T06:08:32;99727.66;;;11.93;100.00
21863;BME280;11096;51.338;12.524;2023-04-29T06:10:58;99736.88;;;11.86;100.00
21863;BME280;11096;51.338;12.524;2023-04-29T06:13:23;99738.78;;;11.95;100.00
21863;BME280;11096;51.338;12.524;2023-04-29T06:15:49;99736.66;;;11.89;100.00
21863;BME280;11096;51.338;12.524;2023-04-29T06:18:14;99751.09;;;11.93;100.00
21863;BME280;11096;51.338;12.524;2023-04-29T06:20:40;99748.22;;;12.28;100.00
21863;BME280;11096;51.338;12.524;2023-04-29T06:23:05;99751.09;;;12.46;100.00
21863;BME280;11096;51.338;12.524;2023-04-29T06:25:31;99747.13;;;12.52;100.00
21863;BME280;11096;51.338;12.524;2023-04-29T06:27:57;99749.34;;;12.56;100.00
21863;BME280;11096;51.338;12.524;2023-04-29T06:30:22;99750.38;;;12.44;100.00
21863;BME280;11096;51.338;12.524;2023-04-29T06:32:48;99754.25;;;12.29;100.00
21863;BME280;11096;51.338;12.524;2023-04-29T06:35:13;99749.81;;;12.40;100.00
21863;BME280;11096;51.338;12.524;2023-04-29T06:37:39;99751.31;;;12.22;100.00
21863;BME280;11096;51.338;12.524;2023-04-29T06:40:05;99758.25;;;12.12;100.00
21863;BME280;11096;51.338;12.524;2023-04-29T06:42:31;99758.03;;;12.03;100.00
21863;BME280;11096;51.338;12.524;2023-04-29T06:44:56;99760.69;;;11.92;100.00
21863;BME280;11096;51.338;12.524;2023-04-29T06:47:22;99764.81;;;11.83;100.00
21863;BME280;11096;51.338;12.524;2023-04-29T06:49:47;99768.31;;;12.05;100.00
21863;BME280;11096;51.338;12.524;2023-04-29T06:52:13;99773.19;;;11.98;100.00
21863;BME280;11096;51.338;12.524;2023-04-29T06:54:39;99767.31;;;11.96;100.00
21863;BME280;11096;51.338;12.524;2023-04-29T06:57:04;99765.38;;;11.98;100.00
21863;BME280;11096;51.338;12.524;2023-04-29T06:59:31;99765.19;;;11.90;100.00
21863;BME280;11096;51.338;12.524;2023-04-29T07:01:57;99766.44;;;11.96;100.00
21863;BME280;11096;51.338;12.524;2023-04-29T07:04:22;99761.47;;;12.04;100.00
21863;BME280;11096;51.338;12.524;2023-04-29T07:06:47;99771.47;;;11.76;100.00
21863;BME280;11096;51.338;12.524;2023-04-29T07:09:13;99768.03;;;11.87;100.00
21863;BME280;11096;51.338;12.524;2023-04-29T07:11:39;99771.47;;;11.76;100.00
21863;BME280;11096;51.338;12.524;2023-04-29T07:14:05;99774.50;;;11.93;100.00
21863;BME280;11096;51.338;12.524;2023-04-29T07:16:31;99781.44;;;12.15;100.00
21863;BME280;11096;51.338;12.524;2023-04-29T07:18:57;99782.06;;;11.96;100.00
21863;BME280;11096;51.338;12.524;2023-04-29T07:21:22;99780.56;;;11.82;100.00
21863;BME280;11096;51.338;12.524;2023-04-29T07:23:48;99775.97;;;11.63;100.00
21863;BME280;11096;51.338;12.524;2023-04-29T07:26:14;99786.59;;;11.82;100.00
21863;BME280;11096;51.338;12.524;2023-04-29T07:28:41;99789.22;;;11.94;100.00
21863;BME280;11096;51.338;12.524;2023-04-29T07:31:07;99792.75;;;11.81;100.00
21863;BME280;11096;51.338;12.524;2023-04-29T07:33:33;99803.16;;;11.93;100.00
21863;BME280;11096;51.338;12.524;2023-04-29T07:35:59;99797.66;;;12.18;100.00
21863;BME280;11096;51.338;12.524;2023-04-29T07:38:25;99801.00;;;12.30;100.00
21863;BME280;11096;51.338;12.524;2023-04-29T07:40:50;99800.63;;;12.14;100.00
21863;BME280;11096;51.338;12.524;2023-04-29T07:43:16;99799.75;;;12.24;100.00
21863;BME280;11096;51.338;12.524;2023-04-29T07:45:41;99798.66;;;12.27;100.00
21863;BME280;11096;51.338;12.524;2023-04-29T07:48:06;99813.19;;;12.41;100.00
21863;BME280;11096;51.338;12.524;2023-04-29T07:50:35;99814.50;;;12.03;100.00
21863;BME280;11096;51.338;12.524;2023-04-29T07:53:01;99811.13;;;12.23;100.00
21863;BME280;11096;51.338;12.524;2023-04-29T07:55:28;99810.25;;;11.91;100.00
21863;BME280;11096;51.338;12.524;2023-04-29T07:57:58;99826.25;;;11.75;100.00
21863;BME280;11096;51.338;12.524;2023-04-29T08:00:24;99818.69;;;11.72;100.00
21863;BME280;11096;51.338;12.524;2023-04-29T08:02:50;99827.66;;;12.01;100.00
21863;BME280;11096;51.338;12.524;2023-04-29T08:05:16;99823.84;;;12.06;100.00
21863;BME280;11096;51.338;12.524;2023-04-29T08:07:42;99833.81;;;12.33;100.00
21863;BME280;11096;51.338;12.524;2023-04-29T08:10:07;99837.53;;;12.51;100.00
21863;BME280;11096;51.338;12.524;2023-04-29T08:12:33;99839.53;;;12.48;100.00
21863;BME280;11096;51.338;12.524;2023-04-29T08:14:58;99830.53;;;12.31;100.00
21863;BME280;11096;51.338;12.524;2023-04-29T08:17:24;99834.56;;;12.23;100.00
21863;BME280;11096;51.338;12.524;2023-04-29T08:19:49;99831.19;;;12.33;100.00
21863;BME280;11096;51.338;12.524;2023-04-29T08:22:14;99838.34;;;12.31;100.00
21863;BME280;11096;51.338;12.524;2023-04-29T08:24:40;99849.31;;;12.34;100.00
21863;BME280;11096;51.338;12.524;2023-04-29T08:27:07;99858.34;;;12.30;100.00
21863;BME280;11096;51.338;12.524;2023-04-29T08:29:32;99855.09;;;12.38;100.00
21863;BME280;11096;51.338;12.524;2023-04-29T08:31:58;99862.44;;;12.44;100.00
21863;BME280;11096;51.338;12.524;2023-04-29T08:34:24;99872.66;;;12.36;100.00
21863;BME280;11096;51.338;12.524;2023-04-29T08:36:49;99872.56;;;12.26;100.00
21863;BME280;11096;51.338;12.524;2023-04-29T08:39:15;99870.28;;;12.33;100.00
21863;BME280;11096;51.338;12.524;2023-04-29T08:41:40;99880.41;;;12.47;100.00
21863;BME280;11096;51.338;12.524;2023-04-29T08:44:08;99883.97;;;12.78;100.00
21863;BME280;11096;51.338;12.524;2023-04-29T08:46:33;99875.13;;;12.91;100.00
21863;BME280;11096;51.338;12.524;2023-04-29T08:49:01;99875.13;;;13.11;100.00
21863;BME280;11096;51.338;12.524;2023-04-29T08:51:28;99878.31;;;13.67;100.00
21863;BME280;11096;51.338;12.524;2023-04-29T08:53:55;99882.16;;;14.13;100.00
21863;BME280;11096;51.338;12.524;2023-04-29T08:56:20;99880.06;;;14.07;100.00
21863;BME280;11096;51.338;12.524;2023-04-29T08:58:49;99891.81;;;13.51;100.00
21863;BME280;11096;51.338;12.524;2023-04-29T09:01:19;99891.53;;;13.44;100.00
21863;BME280;11096;51.338;12.524;2023-04-29T09:04:07;99891.69;;;13.22;100.00
21863;BME280;11096;51.338;12.524;2023-04-29T09:06:34;99893.31;;;13.23;100.00
21863;BME280;11096;51.338;12.524;2023-04-29T09:09:00;99892.75;;;13.19;100.00
21863;BME280;11096;51.338;12.524;2023-04-29T09:11:28;99899.19;;;13.36;100.00
21863;BME280;11096;51.338;12.524;2023-04-29T09:14:01;99904.38;;;13.57;100.00
21863;BME280;11096;51.338;12.524;2023-04-29T09:16:30;99913.19;;;13.66;100.00
21863;BME280;11096;51.338;12.524;2023-04-29T09:18:55;99900.44;;;12.79;100.00
21863;BME280;11096;51.338;12.524;2023-04-29T09:21:23;99910.25;;;13.07;100.00
21863;BME280;11096;51.338;12.524;2023-04-29T09:23:57;99915.47;;;13.07;100.00
21863;BME280;11096;51.338;12.524;2023-04-29T09:26:23;99919.13;;;13.68;100.00
21863;BME280;11096;51.338;12.524;2023-04-29T09:29:06;99918.09;;;14.50;100.00
21863;BME280;11096;51.338;12.524;2023-04-29T09:31:32;99909.84;;;14.64;100.00
21863;BME280;11096;51.338;12.524;2023-04-29T09:33:57;99925.81;;;15.10;99.56
21863;BME280;11096;51.338;12.524;2023-04-29T09:36:46;99925.13;;;14.59;97.08
21863;BME280;11096;51.338;12.524;2023-04-29T09:39:21;99929.19;;;14.13;99.67
21863;BME280;11096;51.338;12.524;2023-04-29T09:44:19;99939.75;;;13.71;100.00
21863;BME280;11096;51.338;12.524;2023-04-29T09:47:04;99944.19;;;13.80;100.00
21863;BME280;11096;51.338;12.524;2023-04-29T09:52:11;99963.16;;;14.82;100.00
21863;BME280;11096;51.338;12.524;2023-04-29T09:54:37;99953.09;;;14.97;94.61
21863;BME280;11096;51.338;12.524;2023-04-29T09:57:04;99963.63;;;14.37;93.82
21863;BME280;11096;51.338;12.524;2023-04-29T09:59:31;99977.06;;;14.23;92.35
21863;BME280;11096;51.338;12.524;2023-04-29T10:01:59;99974.44;;;13.83;95.71
21863;BME280;11096;51.338;12.524;2023-04-29T10:04:26;99970.19;;;13.19;98.14
21863;BME280;11096;51.338;12.524;2023-04-29T10:06:53;99984.31;;;12.95;100.00
21863;BME280;11096;51.338;12.524;2023-04-29T10:09:20;99977.16;;;12.65;100.00
21863;BME280;11096;51.338;12.524;2023-04-29T10:11:51;99994.03;;;12.50;100.00
21863;BME280;11096;51.338;12.524;2023-04-29T10:14:19;99989.34;;;12.76;100.00
21863;BME280;11096;51.338;12.524;2023-04-29T10:16:47;99990.31;;;13.07;100.00
21863;BME280;11096;51.338;12.524;2023-04-29T10:19:38;99995.31;;;12.99;100.00
21863;BME280;11096;51.338;12.524;2023-04-29T10:22:08;99992.03;;;12.42;100.00
21863;BME280;11096;51.338;12.524;2023-04-29T10:24:37;100005.66;;;12.23;100.00
21863;BME280;11096;51.338;12.524;2023-04-29T10:27:06;99996.06;;;12.35;100.00
21863;BME280;11096;51.338;12.524;2023-04-29T10:29:33;100018.03;;;12.64;100.00
21863;BME280;11096;51.338;12.524;2023-04-29T10:32:02;100007.22;;;15.07;96.65
21863;BME280;11096;51.338;12.524;2023-04-29T10:34:28;100014.63;;;15.31;86.77
21863;BME280;11096;51.338;12.524;2023-04-29T10:36:56;100005.94;;;16.06;81.13
21863;BME280;11096;51.338;12.524;2023-04-29T10:39:39;100014.97;;;13.77;80.62
21863;BME280;11096;51.338;12.524;2023-04-29T10:42:17;100019.06;;;13.17;90.38
21863;BME280;11096;51.338;12.524;2023-04-29T10:45:16;100014.06;;;14.59;89.39
21863;BME280;11096;51.338;12.524;2023-04-29T10:53:02;100023.97;;;12.78;100.00
21863;BME280;11096;51.338;12.524;2023-04-29T10:55:28;100031.38;;;12.16;100.00
21863;BME280;11096;51.338;12.524;2023-04-29T10:57:54;100025.09;;;12.08;100.00
21863;BME280;11096;51.338;12.524;2023-04-29T11:00:29;100033.28;;;11.92;100.00
21863;BME280;11096;51.338;12.524;2023-04-29T11:02:57;100027.50;;;11.53;100.00
21863;BME280;11096;51.338;12.524;2023-04-29T11:05:32;100038.75;;;11.65;100.00
21863;BME280;11096;51.338;12.524;2023-04-29T11:08:13;100045.81;;;11.51;100.00
21863;BME280;11096;51.338;12.524;2023-04-29T11:10:47;100041.69;;;11.60;100.00
21863;BME280;11096;51.338;12.524;2023-04-29T11:13:26;100054.47;;;11.52;100.00
21863;BME280;11096;51.338;12.524;2023-04-29T11:16:11;100059.97;;;11.82;100.00
21863;BME280;11096;51.338;12.524;2023-04-29T11:19:03;100051.91;;;11.86;100.00
21863;BME280;11096;51.338;12.524;2023-04-29T11:21:29;100055.94;;;11.78;100.00
21863;BME280;11096;51.338;12.524;2023-04-29T11:23:56;100058.53;;;11.78;100.00
21863;BME280;11096;51.338;12.524;2023-04-29T11:26:23;100051.91;;;11.86;100.00
21863;BME280;11096;51.338;12.524;2023-04-29T11:28:50;100063.97;;;11.64;100.00
21863;BME280;11096;51.338;12.524;2023-04-29T11:31:16;100069.66;;;11.80;100.00
21863;BME280;11096;51.338;12.524;2023-04-29T11:33:41;100079.91;;;11.95;100.00
21863;BME280;11096;51.338;12.524;2023-04-29T11:36:09;100078.84;;;11.97;100.00
21863;BME280;11096;51.338;12.524;2023-04-29T11:38:39;100079.81;;;11.96;100.00
21863;BME280;11096;51.338;12.524;2023-04-29T11:41:05;100081.31;;;11.88;100.00
21863;BME280;11096;51.338;12.524;2023-04-29T11:43:31;100095.06;;;12.12;100.00
21863;BME280;11096;51.338;12.524;2023-04-29T11:45:56;100088.69;;;11.70;100.00
21863;BME280;11096;51.338;12.524;2023-04-29T11:48:23;100105.88;;;11.83;100.00
21863;BME280;11096;51.338;12.524;2023-04-29T11:50:50;100113.41;;;11.64;100.00
21863;BME280;11096;51.338;12.524;2023-04-29T11:53:22;100114.91;;;11.91;100.00
21863;BME280;11096;51.338;12.524;2023-04-29T11:55:51;100109.13;;;11.98;100.00
21863;BME280;11096;51.338;12.524;2023-04-29T11:58:19;100121.94;;;12.01;100.00
21863;BME280;11096;51.338;12.524;2023-04-29T12:00:49;100115.19;;;11.99;100.00
21863;BME280;11096;51.338;12.524;2023-04-29T12:03:16;100124.69;;;12.11;100.00
21863;BME280;11096;51.338;12.524;2023-04-29T12:05:51;100125.88;;;12.18;100.00
21863;BME280;11096;51.338;12.524;2023-04-29T12:08:20;100127.97;;;12.02;100.00
21863;BME280;11096;51.338;12.524;2023-04-29T12:10:47;100128.56;;;11.94;100.00
21863;BME280;11096;51.338;12.524;2023-04-29T12:13:13;100129.91;;;12.11;100.00
21863;BME280;11096;51.338;12.524;2023-04-29T12:15:39;100134.75;;;12.27;100.00
21863;BME280;11096;51.338;12.524;2023-04-29T12:18:05;100133.59;;;12.42;100.00
21863;BME280;11096;51.338;12.524;2023-04-29T12:20:31;100134.19;;;12.68;100.00
21863;BME280;11096;51.338;12.524;2023-04-29T12:23:13;100135.97;;;12.57;100.00
21863;BME280;11096;51.338;12.524;2023-04-29T12:25:39;100136.34;;;12.41;100.00
21863;BME280;11096;51.338;12.524;2023-04-29T12:28:13;100130.69;;;13.02;100.00
21863;BME280;11096;51.338;12.524;2023-04-29T12:30:39;100123.19;;;13.20;100.00
21863;BME280;11096;51.338;12.524;2023-04-29T12:33:07;100129.53;;;13.49;97.86
21863;BME280;11096;51.338;12.524;2023-04-29T12:35:34;100130.03;;;13.43;95.57
21863;BME280;11096;51.338;12.524;2023-04-29T12:37:59;100128.09;;;13.57;93.65
21863;BME280;11096;51.338;12.524;2023-04-29T12:40:25;100133.09;;;13.48;92.74
21863;BME280;11096;51.338;12.524;2023-04-29T12:42:53;100134.25;;;13.56;93.49
21863;BME280;11096;51.338;12.524;2023-04-29T12:45:30;100135.31;;;13.53;92.75
21863;BME280;11096;51.338;12.524;2023-04-29T12:47:56;100131.72;;;14.90;87.40
21863;BME280;11096;51.338;12.524;2023-04-29T12:50:35;100137.72;;;14.19;84.84
21863;BME280;11096;51.338;12.524;2023-04-29T12:53:05;100135.78;;;14.52;84.79
21863;BME280;11096;51.338;12.524;2023-04-29T12:55:35;100142.31;;;14.06;83.97